createdAt,value
2019-02-04T00:01:43.108Z,3.50
2019-02-04T00:04:11.709Z,3.17
2019-02-04T00:06:40.376Z,3.95
2019-02-04T00:09:09.919Z,4.10
2019-02-04T00:11:38.716Z,3.42
2019-02-04T00:14:07.698Z,3.80
2019-02-04T00:16:40.960Z,4.05
2019-02-04T00:19:07.808Z,3.65
2019-02-04T00:21:36.525Z,4.00
2019-02-04T00:24:05.240Z,3.95
2019-02-04T00:26:33.884Z,4.22
2019-02-04T00:29:02.979Z,4.35
2019-02-04T00:31:31.732Z,3.70
2019-02-04T00:34:00.372Z,4.33
2019-02-04T00:36:30.739Z,4.22
2019-02-04T00:39:02.340Z,4.55
2019-02-04T00:41:29.811Z,4.55
2019-02-04T00:43:58.627Z,3.85
2019-02-04T00:46:27.465Z,4.30
2019-02-04T00:48:56.267Z,5.20
2019-02-04T00:51:24.927Z,4.10
2019-02-04T00:53:53.789Z,4.70
2019-02-04T00:56:22.498Z,4.58
2019-02-04T00:58:51.924Z,4.92
2019-02-04T01:01:20.599Z,5.85
2019-02-04T01:03:49.292Z,5.50
2019-02-04T01:06:17.908Z,5.33
2019-02-04T01:08:47.355Z,5.67
2019-02-04T01:11:16.086Z,5.28
2019-02-04T01:13:44.887Z,4.90
2019-02-04T01:16:13.495Z,5.00
2019-02-04T01:18:42.467Z,5.50
2019-02-04T01:21:11.314Z,5.37
2019-02-04T01:23:39.966Z,5.75
2019-02-04T01:26:08.662Z,6.20
2019-02-04T01:28:37.571Z,5.33
2019-02-04T01:31:06.255Z,5.78
2019-02-04T01:33:41.033Z,5.30
2019-02-04T01:36:09.619Z,5.28
2019-02-04T01:38:38.261Z,5.03
2019-02-04T01:41:07.044Z,5.05
2019-02-04T01:43:35.673Z,5.10
2019-02-04T01:46:04.268Z,4.90
2019-02-04T01:48:32.916Z,5.10
2019-02-04T01:51:01.552Z,5.62
2019-02-04T01:53:30.195Z,5.00
2019-02-04T01:55:58.816Z,4.70
2019-02-04T01:58:27.511Z,4.92
2019-02-04T02:00:56.156Z,5.08
2019-02-04T02:03:24.772Z,5.05
2019-02-04T02:05:53.387Z,5.20
2019-02-04T02:08:22.111Z,5.30
2019-02-04T02:10:50.999Z,6.15
2019-02-04T02:13:19.620Z,5.70
2019-02-04T02:15:48.566Z,5.65
2019-02-04T02:18:17.234Z,7.15
2019-02-04T02:20:45.847Z,6.20
2019-02-04T02:23:14.540Z,6.30
2019-02-04T02:25:43.164Z,6.20
2019-02-04T02:28:11.774Z,5.67
2019-02-04T02:30:40.427Z,6.62
2019-02-04T02:33:09.086Z,6.60
2019-02-04T02:35:37.714Z,6.58
2019-02-04T02:38:06.424Z,7.22
2019-02-04T02:40:35.119Z,7.37
2019-02-04T02:43:04.219Z,7.05
2019-02-04T02:45:32.883Z,7.83
2019-02-04T02:48:01.646Z,7.03
2019-02-04T02:50:30.264Z,7.47
2019-02-04T02:52:59.051Z,6.90
2019-02-04T02:55:27.646Z,6.80
2019-02-04T02:57:56.583Z,8.00
2019-02-04T03:00:27.462Z,7.60
2019-02-04T03:02:56.262Z,7.42
2019-02-04T03:05:25.022Z,7.87
2019-02-04T03:07:53.719Z,8.63
2019-02-04T03:10:24.865Z,9.55
2019-02-04T03:12:53.879Z,8.63
2019-02-04T03:15:22.494Z,9.95
2019-02-04T03:17:52.697Z,9.73
2019-02-04T03:20:21.653Z,10.32
2019-02-04T03:22:50.641Z,9.70
2019-02-04T03:25:19.334Z,9.58
2019-02-04T03:27:48.183Z,8.65
2019-02-04T03:30:34.914Z,9.50
2019-02-04T03:33:03.846Z,8.70
2019-02-04T03:35:32.593Z,9.48
2019-02-04T03:38:01.761Z,9.43
2019-02-04T03:40:32.027Z,8.53
2019-02-04T03:43:00.803Z,9.03
2019-02-04T03:45:29.514Z,9.00
2019-02-04T03:48:05.519Z,8.88
2019-02-04T03:50:28.459Z,9.83
2019-02-04T03:52:58.193Z,9.50
2019-02-04T03:55:26.961Z,9.95
2019-02-04T03:57:55.563Z,10.35
2019-02-04T04:00:29.586Z,11.30
2019-02-04T04:02:58.287Z,11.48
2019-02-04T04:05:27.209Z,13.15
2019-02-04T04:07:55.871Z,12.10
2019-02-04T04:10:24.621Z,13.50
2019-02-04T04:12:53.312Z,13.20
2019-02-04T04:15:22.003Z,13.35
2019-02-04T04:17:50.655Z,14.07
2019-02-04T04:20:19.832Z,13.40
2019-02-04T04:22:48.584Z,13.80
2019-02-04T04:25:17.215Z,12.80
2019-02-04T04:27:46.279Z,12.90
2019-02-04T04:30:17.499Z,13.68
2019-02-04T04:32:46.185Z,15.30
2019-02-04T04:35:16.248Z,14.35
2019-02-04T04:37:45.051Z,15.53
2019-02-04T04:40:14.363Z,17.65
2019-02-04T04:42:43.114Z,16.93
2019-02-04T04:45:13.907Z,18.32
2019-02-04T04:47:42.511Z,19.55
2019-02-04T04:50:11.287Z,19.90
2019-02-04T04:52:39.985Z,21.65
2019-02-04T04:55:10.019Z,22.13
2019-02-04T04:57:38.689Z,23.30
2019-02-04T05:00:09.758Z,24.45
2019-02-04T05:02:38.362Z,23.47
2019-02-04T05:05:08.534Z,25.60
2019-02-04T05:07:37.463Z,25.62
2019-02-04T05:10:07.635Z,26.85
2019-02-04T05:12:36.316Z,26.73
2019-02-04T05:15:05.937Z,27.52
2019-02-04T05:17:34.848Z,28.25
2019-02-04T05:20:04.102Z,27.07
2019-02-04T05:22:32.710Z,28.40
2019-02-04T05:25:01.315Z,27.95
2019-02-04T05:27:30.248Z,29.90
2019-02-04T05:29:58.874Z,28.95
2019-02-04T05:32:27.860Z,27.67
2019-02-04T05:34:57.619Z,24.57
2019-02-04T05:37:26.304Z,29.48
2019-02-04T05:39:55.396Z,29.12
2019-02-04T05:42:24.030Z,29.12
2019-02-04T05:44:52.647Z,30.15
2019-02-04T05:47:21.577Z,29.63
2019-02-04T05:49:50.203Z,30.02
2019-02-04T05:52:19.223Z,31.70
2019-02-04T05:54:47.841Z,29.98
2019-02-04T05:57:16.460Z,31.73
2019-02-04T05:59:45.072Z,32.08
2019-02-04T06:02:14.082Z,32.53
2019-02-04T06:04:42.696Z,31.60
2019-02-04T06:07:11.320Z,33.05
2019-02-04T06:09:39.967Z,31.02
2019-02-04T06:12:08.608Z,33.05
2019-02-04T06:14:37.231Z,33.23
2019-02-04T06:17:05.958Z,34.53
2019-02-04T06:19:34.590Z,32.75
2019-02-04T06:22:03.284Z,33.80
2019-02-04T06:24:31.888Z,32.38
2019-02-04T06:27:00.517Z,33.60
2019-02-04T06:29:29.113Z,33.25
2019-02-04T06:31:57.851Z,33.42
2019-02-04T06:34:26.479Z,35.00
2019-02-04T06:36:55.190Z,33.63
2019-02-04T06:39:23.796Z,34.00
2019-02-04T06:41:52.420Z,32.85
2019-02-04T06:44:21.072Z,32.90
2019-02-04T06:46:49.747Z,32.38
2019-02-04T06:49:18.382Z,33.18
2019-02-04T06:51:47.032Z,32.05
2019-02-04T06:54:15.643Z,32.23
2019-02-04T06:56:44.292Z,31.40
2019-02-04T06:59:12.931Z,33.40
2019-02-04T07:01:41.603Z,33.13
2019-02-04T07:04:10.661Z,33.75
2019-02-04T07:06:39.338Z,34.00
2019-02-04T07:09:10.655Z,32.00
2019-02-04T07:11:39.339Z,30.05
2019-02-04T07:14:08.007Z,31.07
2019-02-04T07:16:36.650Z,29.87
2019-02-04T07:19:05.696Z,28.32
2019-02-04T07:21:34.397Z,29.77
2019-02-04T07:24:03.342Z,28.07
2019-02-04T07:26:32.001Z,29.10
2019-02-04T07:29:00.638Z,29.60
2019-02-04T07:31:29.275Z,27.98
2019-02-04T07:33:57.907Z,26.77
2019-02-04T07:36:26.662Z,24.77
2019-02-04T07:38:55.562Z,24.02
2019-02-04T07:41:24.227Z,24.90
2019-02-04T07:43:52.844Z,24.95
2019-02-04T07:46:21.478Z,24.90
2019-02-04T07:48:50.088Z,24.95
2019-02-04T07:51:18.795Z,23.42
2019-02-04T07:53:47.409Z,24.18
2019-02-04T07:56:16.092Z,23.32
2019-02-04T07:58:44.695Z,24.20
2019-02-04T08:01:13.323Z,24.10
2019-02-04T08:03:42.062Z,21.97
2019-02-04T08:06:11.008Z,20.37
2019-02-04T08:08:39.636Z,21.75
2019-02-04T08:11:08.265Z,19.30
2019-02-04T08:13:36.935Z,20.17
2019-02-04T08:16:05.567Z,20.72
2019-02-04T08:18:34.218Z,19.55
2019-02-04T08:21:03.117Z,18.52
2019-02-04T08:23:31.741Z,18.95
2019-02-04T08:26:00.347Z,19.62
2019-02-04T08:28:28.991Z,20.97
2019-02-04T08:30:57.590Z,20.23
2019-02-04T08:33:26.276Z,19.62
2019-02-04T08:35:55.089Z,18.82
2019-02-04T08:38:24.068Z,17.35
2019-02-04T08:40:52.698Z,17.87
2019-02-04T08:43:21.552Z,14.53
2019-02-04T08:45:50.236Z,18.80
2019-02-04T08:48:18.865Z,17.42
2019-02-04T08:50:47.472Z,17.98
2019-02-04T08:53:16.452Z,18.37
2019-02-04T08:55:45.067Z,18.05
2019-02-04T08:58:13.829Z,16.75
2019-02-04T09:00:42.447Z,17.50
2019-02-04T09:03:11.088Z,14.60
2019-02-04T09:05:39.804Z,18.42
2019-02-04T09:08:08.558Z,14.50
2019-02-04T09:10:37.444Z,18.42
2019-02-04T09:13:06.091Z,16.67
2019-02-04T09:15:34.755Z,15.90
2019-02-04T09:18:03.692Z,15.85
2019-02-04T09:20:32.404Z,14.18
2019-02-04T09:23:01.067Z,15.30
2019-02-04T09:25:30.077Z,15.70
2019-02-04T09:27:58.849Z,16.07
2019-02-04T09:30:27.729Z,15.93
2019-02-04T09:32:57.718Z,15.27
2019-02-04T09:35:26.750Z,15.70
2019-02-04T09:37:55.399Z,14.20
2019-02-04T09:40:27.063Z,13.85
2019-02-04T09:42:55.891Z,13.50
2019-02-04T09:45:27.585Z,8.90
2019-02-04T09:47:55.058Z,10.98
2019-02-04T09:50:24.289Z,11.87
2019-02-04T09:52:52.992Z,11.93
2019-02-04T09:55:24.008Z,12.10
2019-02-04T09:57:52.722Z,12.60
2019-02-04T10:00:23.914Z,12.55
2019-02-04T10:02:52.715Z,13.07
2019-02-04T10:05:21.413Z,12.67
2019-02-04T10:07:50.251Z,13.33
2019-02-04T10:10:21.188Z,6.80
2019-02-04T10:12:52.433Z,9.30
2019-02-04T10:15:22.904Z,11.67
2019-02-04T10:17:52.547Z,8.37
2019-02-04T10:20:32.998Z,12.70
2019-02-04T10:22:51.825Z,12.13
2019-02-04T10:25:22.872Z,11.97
2019-02-04T10:27:51.584Z,10.37
2019-02-04T10:30:22.715Z,12.17
2019-02-04T10:32:51.610Z,8.90
2019-02-04T10:35:20.585Z,12.07
2019-02-04T10:37:49.905Z,12.77
2019-02-04T10:40:20.700Z,12.00
2019-02-04T10:42:49.583Z,12.83
2019-02-04T10:45:18.753Z,12.63
2019-02-04T10:47:47.744Z,12.43
2019-02-04T10:50:19.108Z,12.43
2019-02-04T10:52:47.920Z,8.00
2019-02-04T10:55:16.806Z,10.30
2019-02-04T10:57:45.414Z,12.10
2019-02-04T11:00:16.622Z,13.07
2019-02-04T11:02:45.441Z,11.33
2019-02-04T11:05:17.043Z,10.80
2019-02-04T11:07:45.749Z,11.00
2019-02-04T11:10:15.846Z,11.50
2019-02-04T11:12:44.976Z,11.80
2019-02-04T11:15:14.455Z,13.90
2019-02-04T11:17:43.198Z,11.30
2019-02-04T11:20:18.401Z,10.73
2019-02-04T11:22:47.476Z,16.83
2019-02-04T11:25:16.534Z,11.70
2019-02-04T11:27:45.285Z,11.67
2019-02-04T11:30:22.854Z,14.07
2019-02-04T11:32:51.903Z,12.40
2019-02-04T11:35:20.596Z,16.13
2019-02-04T11:37:49.320Z,11.17
2019-02-04T11:40:21.552Z,11.20
2019-02-04T11:42:50.343Z,11.43
2019-02-04T11:45:19.032Z,11.97
2019-02-04T11:47:48.137Z,11.30
2019-02-04T11:50:17.223Z,15.63
2019-02-04T11:52:45.868Z,11.30
2019-02-04T11:55:14.957Z,12.40
2019-02-04T11:57:43.904Z,12.23
2019-02-04T12:00:16.127Z,11.20
2019-02-04T12:02:45.227Z,13.67
2019-02-04T12:05:15.563Z,13.70
2019-02-04T12:07:44.415Z,14.87
2019-02-04T12:10:19.263Z,13.20
2019-02-04T12:12:47.973Z,13.27
2019-02-04T12:15:18.379Z,12.93
2019-02-04T12:17:47.040Z,11.17
2019-02-04T12:20:16.408Z,11.20
2019-02-04T12:22:45.531Z,10.67
2019-02-04T12:25:15.785Z,11.50
2019-02-04T12:27:44.654Z,10.43
2019-02-04T12:30:18.126Z,10.50
2019-02-04T12:32:46.783Z,9.60
2019-02-04T12:35:15.575Z,9.60
2019-02-04T12:37:44.380Z,12.17
2019-02-04T12:40:13.661Z,11.33
2019-02-04T12:42:42.300Z,11.00
2019-02-04T12:45:15.896Z,10.30
2019-02-04T12:47:44.796Z,11.50
2019-02-04T12:50:13.679Z,11.00
2019-02-04T12:52:42.327Z,11.10
2019-02-04T12:55:13.047Z,11.60
2019-02-04T12:57:41.731Z,15.37
2019-02-04T13:00:14.349Z,9.37
2019-02-04T13:02:43.071Z,16.67
2019-02-04T13:05:14.976Z,10.90
2019-02-04T13:07:43.749Z,10.20
2019-02-04T13:10:13.575Z,11.70
2019-02-04T13:12:42.391Z,11.60
2019-02-04T13:15:13.347Z,11.60
2019-02-04T13:17:42.037Z,12.50
2019-02-04T13:20:11.609Z,12.10
2019-02-04T13:22:40.252Z,12.07
2019-02-04T13:25:10.361Z,11.20
2019-02-04T13:27:39.043Z,9.40
2019-02-04T13:30:09.860Z,12.27
2019-02-04T13:32:38.507Z,12.63
2019-02-04T13:35:07.904Z,12.80
2019-02-04T13:37:36.705Z,12.17
2019-02-04T13:40:07.856Z,12.20
2019-02-04T13:42:36.557Z,11.10
2019-02-04T13:45:07.383Z,12.40
2019-02-04T13:47:36.107Z,12.10
2019-02-04T13:50:05.726Z,12.80
2019-02-04T13:52:34.392Z,13.00
2019-02-04T13:55:04.315Z,11.70
2019-02-04T13:57:32.957Z,11.43
2019-02-04T14:00:01.659Z,11.70
2019-02-04T14:02:30.304Z,12.10
2019-02-04T14:04:58.922Z,12.27
2019-02-04T14:07:27.715Z,12.17
2019-02-04T14:09:59.070Z,12.77
2019-02-04T14:12:27.156Z,11.57
2019-02-04T14:14:56.220Z,12.13
2019-02-04T14:17:24.845Z,13.43
2019-02-04T14:19:53.572Z,12.57
2019-02-04T14:22:22.161Z,12.47
2019-02-04T14:24:51.072Z,13.33
2019-02-04T14:27:19.679Z,13.33
2019-02-04T14:29:48.328Z,12.23
2019-02-04T14:32:16.928Z,11.30
2019-02-04T14:34:45.584Z,8.40
2019-02-04T14:37:14.327Z,13.07
2019-02-04T14:39:43.339Z,11.33
2019-02-04T14:42:15.662Z,10.60
2019-02-04T14:45:12.450Z,11.20
2019-02-04T14:47:47.536Z,11.80
2019-02-04T14:50:47.632Z,11.20
2019-02-04T14:53:43.142Z,11.03
2019-02-04T14:56:36.662Z,11.33
2019-02-04T14:59:33.243Z,11.27
2019-02-04T15:02:34.768Z,12.40
2019-02-04T15:05:34.411Z,11.30
2019-02-04T15:08:50.257Z,10.10
2019-02-04T15:11:41.895Z,10.90
2019-02-04T15:14:55.572Z,9.80
2019-02-04T15:18:01.967Z,9.90
2019-02-04T15:21:06.500Z,10.10
2019-02-04T15:23:53.748Z,9.40
2019-02-04T15:26:51.623Z,10.20
2019-02-04T15:29:46.199Z,10.40
2019-02-04T15:32:20.684Z,13.10
2019-02-04T15:35:18.935Z,9.33
2019-02-04T15:38:13.373Z,12.83
2019-02-04T15:41:08.051Z,12.10
2019-02-04T15:44:05.143Z,12.00
2019-02-04T15:46:43.318Z,10.90
2019-02-04T15:49:55.935Z,10.80
2019-02-04T15:52:24.660Z,11.83
2019-02-04T15:54:53.475Z,12.43
2019-02-04T15:57:22.467Z,9.70
2019-02-04T15:59:51.065Z,10.00
2019-02-04T16:02:19.733Z,8.97
2019-02-04T16:04:48.439Z,8.63
2019-02-04T16:07:17.112Z,11.23
2019-02-04T16:09:45.870Z,10.00
2019-02-04T16:12:14.774Z,9.00
2019-02-04T16:14:43.387Z,10.57
2019-02-04T16:17:12.304Z,10.93
2019-02-04T16:19:40.919Z,10.27
2019-02-04T16:22:09.937Z,10.13
2019-02-04T16:24:38.527Z,9.33
2019-02-04T16:27:07.458Z,8.67
2019-02-04T16:29:36.065Z,11.27
2019-02-04T16:32:05.963Z,10.10
2019-02-04T16:34:34.575Z,8.63
2019-02-04T16:37:03.372Z,10.87
2019-02-04T16:39:32.009Z,10.03
2019-02-04T16:42:00.653Z,9.80
2019-02-04T16:44:29.247Z,10.43
2019-02-04T16:46:57.904Z,9.90
2019-02-04T16:49:26.536Z,8.10
2019-02-04T16:51:55.224Z,10.43
2019-02-04T16:54:23.850Z,9.43
2019-02-04T16:56:52.448Z,9.43
2019-02-04T16:59:21.734Z,9.13
2019-02-04T17:01:50.340Z,8.40
2019-02-04T17:04:18.996Z,8.80
2019-02-04T17:06:47.648Z,8.20
2019-02-04T17:09:16.456Z,8.63
2019-02-04T17:11:45.127Z,8.93
2019-02-04T17:14:14.163Z,8.90
2019-02-04T17:16:42.850Z,8.63
2019-02-04T17:19:11.578Z,8.10
2019-02-04T17:21:40.253Z,8.70
2019-02-04T17:24:08.879Z,8.30
2019-02-04T17:26:37.492Z,7.90
2019-02-04T17:29:06.236Z,7.00
2019-02-04T17:31:34.874Z,9.03
2019-02-04T17:34:04.413Z,8.50
2019-02-04T17:36:33.373Z,8.10
2019-02-04T17:39:02.035Z,8.57
2019-02-04T17:41:30.707Z,8.33
2019-02-04T17:43:59.953Z,7.23
2019-02-04T17:46:28.766Z,8.43
2019-02-04T17:48:57.529Z,8.87
2019-02-04T17:51:26.103Z,8.00
2019-02-04T17:53:54.827Z,6.97
2019-02-04T17:56:23.513Z,8.57
2019-02-04T17:58:52.141Z,9.30
2019-02-04T18:01:21.129Z,7.00
2019-02-04T18:03:49.872Z,6.20
2019-02-04T18:06:18.513Z,8.77
2019-02-04T18:08:47.174Z,8.77
2019-02-04T18:11:15.779Z,7.70
2019-02-04T18:13:44.423Z,7.80
2019-02-04T18:16:13.410Z,9.10
2019-02-04T18:18:42.080Z,8.10
2019-02-04T18:21:10.767Z,8.23
2019-02-04T18:23:46.071Z,10.17
2019-02-04T18:26:09.796Z,8.80
2019-02-04T18:28:38.851Z,10.23
2019-02-04T18:31:07.501Z,10.40
2019-02-04T18:33:36.534Z,8.55
2019-02-04T18:36:05.525Z,9.73
2019-02-04T18:38:34.214Z,10.68
2019-02-04T18:41:03.079Z,9.60
2019-02-04T18:43:31.787Z,9.90
2019-02-04T18:46:00.393Z,9.93
2019-02-04T18:48:29.434Z,10.40
2019-02-04T18:50:58.066Z,9.90
2019-02-04T18:53:26.723Z,11.40
2019-02-04T18:55:55.639Z,9.83
2019-02-04T18:58:24.521Z,9.00
2019-02-04T19:00:53.171Z,10.70
2019-02-04T19:03:21.767Z,10.97
2019-02-04T19:05:50.429Z,9.70
2019-02-04T19:08:19.035Z,10.67
2019-02-04T19:10:47.672Z,10.63
2019-02-04T19:13:16.336Z,10.30
2019-02-04T19:15:44.991Z,11.40
2019-02-04T19:18:18.487Z,10.90
2019-02-04T19:20:45.903Z,11.60
2019-02-04T19:23:14.519Z,10.33
2019-02-04T19:25:43.271Z,10.07
2019-02-04T19:28:11.877Z,10.23
2019-02-04T19:30:56.639Z,10.50
2019-02-04T19:33:25.244Z,10.20
2019-02-04T19:35:53.921Z,10.60
2019-02-04T19:38:23.243Z,10.70
2019-02-04T19:40:52.174Z,10.90
2019-02-04T19:43:21.063Z,11.67
2019-02-04T19:45:49.835Z,9.90
2019-02-04T19:48:18.442Z,10.60
2019-02-04T19:50:47.093Z,10.37
2019-02-04T19:53:15.708Z,10.63
2019-02-04T19:55:44.655Z,10.77
2019-02-04T19:58:13.676Z,10.47
2019-02-04T20:00:42.336Z,9.53
2019-02-04T20:03:11.060Z,9.83
2019-02-04T20:05:39.856Z,10.30
2019-02-04T20:08:08.469Z,8.40
2019-02-04T20:10:37.162Z,10.17
2019-02-04T20:13:06.466Z,9.70
2019-02-04T20:15:35.293Z,10.07
2019-02-04T20:18:04.104Z,9.47
2019-02-04T20:20:32.831Z,8.70
2019-02-04T20:23:01.443Z,9.10
2019-02-04T20:25:30.602Z,9.53
2019-02-04T20:27:59.401Z,9.00
2019-02-04T20:30:30.029Z,9.50
2019-02-04T20:32:58.745Z,9.33
2019-02-04T20:35:27.621Z,8.87
2019-02-04T20:37:57.048Z,10.57
2019-02-04T20:40:25.949Z,9.47
2019-02-04T20:42:54.579Z,9.40
2019-02-04T20:45:23.736Z,9.40
2019-02-04T20:47:53.335Z,8.83
2019-02-04T20:50:30.628Z,9.13
2019-02-04T20:52:59.299Z,8.10
2019-02-04T20:55:28.219Z,8.40
2019-02-04T20:57:57.823Z,9.40
2019-02-04T21:00:27.973Z,9.70
2019-02-04T21:02:56.966Z,7.30
2019-02-04T21:05:26.329Z,8.43
2019-02-04T21:07:55.144Z,9.07
2019-02-04T21:10:24.639Z,9.00
2019-02-04T21:12:53.742Z,7.80
2019-02-04T21:15:22.865Z,7.30
2019-02-04T21:17:51.644Z,8.57
2019-02-04T21:20:21.934Z,7.53
2019-02-04T21:22:50.676Z,7.60
2019-02-04T21:25:19.506Z,6.80
2019-02-04T21:27:48.785Z,8.10
2019-02-04T21:30:25.764Z,8.10
2019-02-04T21:32:54.500Z,8.40
2019-02-04T21:35:23.406Z,8.30
2019-02-04T21:37:52.196Z,6.57
2019-02-04T21:40:20.991Z,9.00
2019-02-04T21:42:50.161Z,8.33
2019-02-04T21:45:19.884Z,7.90
2019-02-04T21:47:48.702Z,8.60
2019-02-04T21:50:19.276Z,8.20
2019-02-04T21:52:49.486Z,7.63
2019-02-04T21:55:20.069Z,8.10
2019-02-04T21:57:48.736Z,9.63
2019-02-04T22:00:19.902Z,10.50
2019-02-04T22:02:48.567Z,7.30
2019-02-04T22:05:18.115Z,9.53
2019-02-04T22:07:46.923Z,9.40
2019-02-04T22:10:20.531Z,8.77
2019-02-04T22:12:49.271Z,8.67
2019-02-04T22:15:18.272Z,8.90
2019-02-04T22:17:46.887Z,9.23
2019-02-04T22:20:16.752Z,8.40
2019-02-04T22:22:45.383Z,7.37
2019-02-04T22:25:20.166Z,7.10
2019-02-04T22:27:46.107Z,7.77
2019-02-04T22:30:17.012Z,8.47
2019-02-04T22:32:46.220Z,8.20
2019-02-04T22:35:14.855Z,8.30
2019-02-04T22:37:43.652Z,8.50
2019-02-04T22:40:15.428Z,7.90
2019-02-04T22:42:44.136Z,8.13
2019-02-04T22:45:13.442Z,8.57
2019-02-04T22:47:42.156Z,8.00
2019-02-04T22:50:14.142Z,7.90
2019-02-04T22:52:42.799Z,8.33
2019-02-04T22:55:11.950Z,8.60
2019-02-04T22:57:40.947Z,7.40
2019-02-04T23:00:21.695Z,7.90
2019-02-04T23:02:50.344Z,7.63
2019-02-04T23:05:18.971Z,7.77
2019-02-04T23:07:47.605Z,7.67
2019-02-04T23:10:16.297Z,7.50
2019-02-04T23:12:44.993Z,8.13
2019-02-04T23:15:13.771Z,8.57
2019-02-04T23:17:42.603Z,8.77
2019-02-04T23:20:11.425Z,7.80
2019-02-04T23:22:40.151Z,7.10
2019-02-04T23:25:08.949Z,8.20
2019-02-04T23:27:37.615Z,7.40
2019-02-04T23:30:07.802Z,8.03
2019-02-04T23:32:36.405Z,8.27
2019-02-04T23:35:05.451Z,9.00
2019-02-04T23:37:34.239Z,6.97
2019-02-04T23:40:03.286Z,7.47
2019-02-04T23:42:31.904Z,7.80
2019-02-04T23:45:00.571Z,8.27
2019-02-04T23:47:29.256Z,7.40
2019-02-04T23:49:57.899Z,7.70
2019-02-04T23:52:26.515Z,7.83
2019-02-04T23:54:55.459Z,7.50
2019-02-04T23:57:24.073Z,8.33
2019-02-04T23:59:52.761Z,8.57
